Time;durP1;ratioP1;P1;durP2;ratioP2;P2;SDS_P1;SDS_P2;PMS_P1;PMS_P2;Temp;Humidity;BMP_temperature;BMP_pressure;BME280_temperature;BME280_humidity;BME280_pressure;Samples;Min_cycle;Max_cycle;Signal;HPM_P1;HPM_P2
2023/07/08 00:00:24;;;;;;;2.47;1.42;;;16.90;99.90;;;;;;5072421;28;20037;-72
2023/07/08 00:02:51;;;;;;;2.72;1.15;;;16.90;99.90;;;;;;5072438;28;20545;-72
2023/07/08 00:05:19;;;;;;;2.95;1.65;;;16.90;99.90;;;;;;5053908;28;20048;-72
2023/07/08 00:07:46;;;;;;;3.60;1.30;;;16.90;99.90;;;;;;5071411;28;20044;-73
2023/07/08 00:10:20;;;;;;;3.15;1.10;;;16.80;99.90;;;;;;5070983;28;20047;-73
2023/07/08 00:12:49;;;;;;;1.92;1.20;;;16.80;99.90;;;;;;5070713;28;20048;-73
2023/07/08 00:15:16;;;;;;;1.93;1.37;;;16.80;99.90;;;;;;5054187;28;20047;-73
2023/07/08 00:17:42;;;;;;;3.47;1.73;;;16.70;99.90;;;;;;5070882;28;20052;-72
2023/07/08 00:20:21;;;;;;;4.38;1.70;;;16.70;99.90;;;;;;5070497;28;20071;-73
2023/07/08 00:22:49;;;;;;;3.20;1.40;;;16.70;99.90;;;;;;5070879;28;20041;-72
2023/07/08 00:25:16;;;;;;;2.55;1.38;;;16.60;99.90;;;;;;5071376;28;20041;-69
2023/07/08 00:27:42;;;;;;;2.13;1.00;;;16.60;99.90;;;;;;5051507;28;20048;-70
2023/07/08 00:30:24;;;;;;;2.53;1.30;;;16.50;99.90;;;;;;5059206;28;20162;-73
2023/07/08 00:32:53;;;;;;;2.83;1.48;;;16.50;99.90;;;;;;5053315;28;20044;-72
2023/07/08 00:35:40;;;;;;;2.10;1.23;;;16.50;99.90;;;;;;5071371;28;20174;-72
2023/07/08 00:38:34;;;;;;;4.05;1.90;;;16.40;99.90;;;;;;5070657;28;20489;-72
2023/07/08 00:41:02;;;;;;;2.10;1.08;;;16.40;99.90;;;;;;5070159;28;20041;-74
2023/07/08 00:43:49;;;;;;;7.35;1.70;;;16.30;99.90;;;;;;5070387;28;20041;-72
2023/07/08 00:46:29;;;;;;;5.25;1.30;;;16.30;99.90;;;;;;5054105;28;20131;-72
2023/07/08 00:49:06;;;;;;;2.28;1.45;;;16.30;99.90;;;;;;5053815;28;20047;-72
2023/07/08 00:51:33;;;;;;;3.30;1.50;;;16.20;99.90;;;;;;5069834;28;20044;-72
2023/07/08 00:53:59;;;;;;;3.60;1.58;;;16.20;99.90;;;;;;5069572;28;20053;-73
2023/07/08 00:56:58;;;;;;;4.95;1.55;;;16.10;99.90;;;;;;5070094;28;20060;-72
2023/07/08 00:59:32;;;;;;;2.97;1.42;;;16.10;99.90;;;;;;5052496;28;20052;-73
2023/07/08 01:02:01;;;;;;;3.53;1.65;;;16.10;99.90;;;;;;5070766;28;20477;-73
2023/07/08 01:04:30;;;;;;;2.25;1.40;;;16.10;99.90;;;;;;5069978;28;20044;-72
2023/07/08 01:06:59;;;;;;;2.90;1.58;;;16.00;99.90;;;;;;5071387;28;20629;-72
2023/07/08 01:09:28;;;;;;;3.70;1.67;;;16.00;99.90;;;;;;5069190;28;20044;-72
2023/07/08 01:11:58;;;;;;;2.35;1.50;;;16.10;99.90;;;;;;5070242;28;20127;-72
2023/07/08 01:14:26;;;;;;;;;;;16.10;99.90;;;;;;5070216;28;20106;-72
2023/07/08 01:16:52;;;;;;;3.22;1.42;;;16.00;99.90;;;;;;5070012;28;19916;-73
2023/07/08 01:19:31;;;;;;;2.00;1.10;;;15.90;99.90;;;;;;5070014;28;20075;-73
2023/07/08 01:21:59;;;;;;;;;;;15.90;99.90;;;;;;5065165;28;20111;-73
2023/07/08 01:24:25;;;;;;;3.63;1.90;;;15.90;99.90;;;;;;5049717;28;20323;-73
2023/07/08 01:26:51;;;;;;;5.65;1.42;;;15.80;99.90;;;;;;5061578;28;20097;-73
2023/07/08 01:29:17;;;;;;;2.90;1.33;;;15.80;99.90;;;;;;5068771;28;20041;-74
2023/07/08 01:31:48;;;;;;;3.85;1.83;;;15.80;99.90;;;;;;5070940;28;20033;-71
2023/07/08 01:34:16;;;;;;;3.75;2.15;;;15.80;99.90;;;;;;5069422;28;20481;-72
2023/07/08 01:36:47;;;;;;;3.85;1.65;;;15.80;99.90;;;;;;5068864;28;20040;-72
2023/07/08 01:39:17;;;;;;;2.92;1.73;;;15.80;99.90;;;;;;5069451;28;20496;-71
2023/07/08 01:41:43;;;;;;;;;;;15.80;99.90;;;;;;5069867;28;20527;-72
2023/07/08 01:44:29;;;;;;;2.88;1.40;;;15.80;99.90;;;;;;5052294;28;19928;-72
2023/07/08 01:47:13;;;;;;;2.78;1.42;;;15.80;99.90;;;;;;5068532;28;20119;-73
2023/07/08 01:49:40;;;;;;;3.00;1.33;;;15.80;99.90;;;;;;5069940;28;20070;-72
2023/07/08 01:52:07;;;;;;;2.28;1.20;;;15.80;99.90;;;;;;5070097;28;20493;-73
2023/07/08 01:54:33;;;;;;;3.53;1.50;;;15.70;99.90;;;;;;5069193;28;20063;-72
2023/07/08 01:57:00;;;;;;;3.60;2.13;;;15.80;99.90;;;;;;5051898;28;20484;-73
2023/07/08 01:59:26;;;;;;;2.05;1.02;;;15.80;99.90;;;;;;5062691;28;20073;-73
2023/07/08 02:01:54;;;;;;;3.47;1.50;;;15.80;99.90;;;;;;5049313;28;20516;-72
2023/07/08 02:04:22;;;;;;;3.63;1.70;;;15.80;99.90;;;;;;5032091;28;20045;-73
2023/07/08 02:06:54;;;;;;;3.10;1.50;;;15.70;99.90;;;;;;5050413;28;20171;-73
2023/07/08 02:09:20;;;;;;;3.28;1.88;;;15.70;99.90;;;;;;5049072;28;20052;-72
2023/07/08 02:11:46;;;;;;;2.97;1.38;;;15.70;99.90;;;;;;5048512;28;20041;-73
2023/07/08 02:14:12;;;;;;;2.55;1.50;;;15.80;99.90;;;;;;5049007;28;20049;-73
2023/07/08 02:16:38;;;;;;;2.42;1.17;;;15.80;99.90;;;;;;5049160;28;20044;-72
2023/07/08 02:19:04;;;;;;;2.20;1.40;;;15.80;99.90;;;;;;5060067;28;20040;-73
2023/07/08 02:21:30;;;;;;;4.00;1.67;;;15.80;99.90;;;;;;5068903;28;20047;-73
2023/07/08 02:23:57;;;;;;;2.70;1.42;;;15.80;99.90;;;;;;5070348;28;20097;-71
2023/07/08 02:26:23;;;;;;;2.97;1.33;;;15.80;99.90;;;;;;5059966;28;20041;-72
2023/07/08 02:28:49;;;;;;;2.05;1.05;;;15.80;99.90;;;;;;5048845;28;20041;-73
2023/07/08 02:31:15;;;;;;;5.25;2.22;;;15.80;99.90;;;;;;5050254;28;20036;-68
2023/07/08 02:33:41;;;;;;;2.35;1.35;;;15.80;99.90;;;;;;5048212;28;20045;-73
2023/07/08 02:36:07;;;;;;;4.70;2.33;;;15.80;99.90;;;;;;5032219;28;20044;-73
2023/07/08 02:38:32;;;;;;;2.78;1.42;;;15.80;99.90;;;;;;5048637;28;20037;-72
2023/07/08 02:40:59;;;;;;;2.70;1.20;;;15.80;99.90;;;;;;5048789;28;20492;-71
2023/07/08 02:43:25;;;;;;;3.78;1.73;;;15.70;99.90;;;;;;5032374;28;20131;-72
2023/07/08 02:45:52;;;;;;;1.92;1.25;;;15.70;99.90;;;;;;5031522;28;20853;-73
2023/07/08 02:48:18;;;;;;;2.83;1.70;;;15.70;99.90;;;;;;5048901;28;20041;-71
2023/07/08 02:50:44;;;;;;;2.83;1.70;;;15.70;99.90;;;;;;5048739;28;20045;-73
2023/07/08 02:53:10;;;;;;;4.63;1.70;;;15.70;99.90;;;;;;5049094;28;20056;-71
2023/07/08 02:55:36;;;;;;;4.10;1.67;;;15.70;99.90;;;;;;5031858;28;20482;-73
2023/07/08 02:58:02;;;;;;;2.63;1.40;;;15.60;99.90;;;;;;5049057;28;20037;-74
2023/07/08 03:00:28;;;;;;;3.40;1.70;;;15.60;99.90;;;;;;5067569;28;20041;-73
2023/07/08 03:02:54;;;;;;;5.20;1.52;;;15.60;99.90;;;;;;5072776;28;20040;-70
2023/07/08 03:05:20;;;;;;;2.45;1.40;;;15.60;99.90;;;;;;5056060;28;20040;-73
2023/07/08 03:07:45;;;;;;;7.32;2.00;;;15.50;99.90;;;;;;5072147;28;20759;-72
2023/07/08 03:10:11;;;;;;;4.57;1.85;;;15.50;99.90;;;;;;5073617;28;20595;-73
2023/07/08 03:12:37;;;;;;;5.05;1.63;;;15.50;99.90;;;;;;5055671;28;20056;-74
2023/07/08 03:15:04;;;;;;;3.28;1.65;;;15.50;99.90;;;;;;5062209;28;20043;-73
2023/07/08 03:17:30;;;;;;;3.55;1.40;;;15.50;99.90;;;;;;5052390;28;20377;-74
2023/07/08 03:19:56;;;;;;;3.83;1.58;;;15.40;99.90;;;;;;5069113;28;20033;-74
2023/07/08 03:22:22;;;;;;;4.05;1.80;;;15.40;99.90;;;;;;5055092;28;20358;-74
2023/07/08 03:24:48;;;;;;;2.95;1.70;;;15.40;99.90;;;;;;5073481;28;20106;-74
2023/07/08 03:27:14;;;;;;;7.88;2.05;;;15.30;99.90;;;;;;5073386;28;20068;-73
2023/07/08 03:29:40;;;;;;;2.83;1.80;;;15.30;99.90;;;;;;5071727;28;20113;-73
2023/07/08 03:32:10;;;;;;;4.60;1.88;;;15.30;99.90;;;;;;5073025;28;20048;-73
2023/07/08 03:34:36;;;;;;;3.28;1.80;;;15.30;99.90;;;;;;5071391;28;20040;-73
2023/07/08 03:37:02;;;;;;;3.45;1.65;;;15.30;99.90;;;;;;5055202;28;20470;-73
2023/07/08 03:39:28;;;;;;;4.05;1.92;;;15.30;99.90;;;;;;5071998;28;20036;-71
2023/07/08 03:41:54;;;;;;;3.58;1.80;;;15.30;99.90;;;;;;5071175;28;20127;-72
2023/07/08 03:44:20;;;;;;;2.50;1.70;;;15.30;99.90;;;;;;5071797;28;20048;-73
2023/07/08 03:46:49;;;;;;;2.53;1.20;;;15.30;99.90;;;;;;5055319;28;20627;-73
2023/07/08 03:49:16;;;;;;;3.38;1.50;;;15.40;99.90;;;;;;5072658;28;20040;-73
2023/07/08 03:51:42;;;;;;;2.58;1.77;;;15.40;99.90;;;;;;5071355;28;20053;-72
2023/07/08 03:54:13;;;;;;;4.72;1.80;;;15.40;99.90;;;;;;5073153;28;20052;-73
2023/07/08 03:56:39;;;;;;;2.88;1.38;;;15.40;99.90;;;;;;5070952;28;20097;-73
2023/07/08 03:59:05;;;;;;;3.80;1.48;;;15.40;99.90;;;;;;5071224;28;20493;-73
2023/07/08 04:01:31;;;;;;;3.35;1.92;;;15.40;99.90;;;;;;5072916;28;20451;-70
2023/07/08 04:03:58;;;;;;;5.47;1.73;;;15.40;99.90;;;;;;5070854;28;20132;-73
2023/07/08 04:06:25;;;;;;;4.63;1.58;;;15.50;99.90;;;;;;5071391;28;20044;-73
2023/07/08 04:08:51;;;;;;;3.30;1.55;;;15.50;99.90;;;;;;5071537;28;20446;-72
2023/07/08 04:11:21;;;;;;;2.83;1.58;;;15.50;99.90;;;;;;5060583;28;20374;-72
2023/07/08 04:13:47;;;;;;;6.13;1.88;;;15.50;99.90;;;;;;5051354;28;20136;-71
2023/07/08 04:16:23;;;;;;;4.00;2.15;;;15.50;99.90;;;;;;5068524;28;20044;-73
2023/07/08 04:18:50;;;;;;;2.75;1.17;;;15.60;99.90;;;;;;5070453;28;20039;-72
2023/07/08 04:21:17;;;;;;;2.42;1.75;;;15.60;99.90;;;;;;5054647;28;20037;-72
2023/07/08 04:23:44;;;;;;;2.45;1.45;;;15.60;99.90;;;;;;5071909;28;20048;-73
2023/07/08 04:26:10;;;;;;;3.40;1.65;;;15.70;99.90;;;;;;5070814;28;20048;-72
2023/07/08 04:28:36;;;;;;;3.88;1.80;;;15.70;99.90;;;;;;5071130;28;20071;-72
2023/07/08 04:31:03;;;;;;;2.60;1.45;;;15.70;99.90;;;;;;5070344;28;20051;-70
2023/07/08 04:33:29;;;;;;;4.15;2.58;;;15.70;99.90;;;;;;5071014;28;20041;-72
2023/07/08 04:35:55;;;;;;;3.00;1.77;;;15.70;99.90;;;;;;5070732;28;20492;-74
2023/07/08 04:38:25;;;;;;;3.22;1.17;;;15.70;99.90;;;;;;5071404;28;20108;-72
2023/07/08 04:40:53;;;;;;;3.33;1.55;;;15.80;99.90;;;;;;5054178;28;20040;-71
2023/07/08 04:43:20;;;;;;;3.47;1.77;;;15.80;99.90;;;;;;5072045;28;20115;-72
2023/07/08 04:45:52;;;;;;;2.10;1.15;;;15.80;99.90;;;;;;5071166;28;20042;-72
2023/07/08 04:48:21;;;;;;;3.78;1.42;;;15.80;99.90;;;;;;5070812;28;20107;-72
2023/07/08 04:50:49;;;;;;;5.05;1.75;;;15.90;99.90;;;;;;5071722;28;20040;-73
2023/07/08 04:53:16;;;;;;;4.18;1.98;;;15.90;99.90;;;;;;5053009;28;20135;-72
2023/07/08 04:55:52;;;;;;;3.30;1.50;;;16.00;99.90;;;;;;5054969;28;20672;-72
2023/07/08 04:58:18;;;;;;;3.72;2.10;;;16.00;99.90;;;;;;5069449;28;20463;-72
2023/07/08 05:00:44;;;;;;;3.72;1.70;;;16.10;99.90;;;;;;5052707;28;20048;-71
2023/07/08 05:03:10;;;;;;;5.50;1.45;;;16.10;99.90;;;;;;5053812;28;20047;-71
2023/07/08 05:05:36;;;;;;;6.18;1.95;;;16.20;99.90;;;;;;5069752;28;20047;-72
2023/07/08 05:08:02;;;;;;;3.97;1.80;;;16.30;99.90;;;;;;5065184;28;20601;-72
2023/07/08 05:10:28;;;;;;;4.40;2.05;;;16.40;99.90;;;;;;5071295;28;20048;-71
2023/07/08 05:12:54;;;;;;;3.33;1.48;;;16.50;99.90;;;;;;5069401;28;20028;-72
2023/07/08 05:15:20;;;;;;;2.60;1.60;;;16.50;99.90;;;;;;5071077;28;20644;-72
2023/07/08 05:17:46;;;;;;;2.75;1.90;;;16.60;99.90;;;;;;5070280;28;20048;-70
2023/07/08 05:20:14;;;;;;;4.30;2.10;;;16.70;99.90;;;;;;5069555;28;20071;-72
2023/07/08 05:22:41;;;;;;;4.78;2.30;;;16.80;99.90;;;;;;5069521;28;20036;-72
2023/07/08 05:25:07;;;;;;;3.70;2.08;;;16.80;99.90;;;;;;5062441;28;20036;-72
2023/07/08 05:27:33;;;;;;;3.63;1.73;;;16.90;99.90;;;;;;5050595;28;20037;-72
2023/07/08 05:30:01;;;;;;;3.25;1.70;;;17.10;99.90;;;;;;5050037;28;20053;-72
2023/07/08 05:32:27;;;;;;;10.77;2.33;;;17.10;99.90;;;;;;5049786;28;20048;-74
2023/07/08 05:34:54;;;;;;;3.05;1.83;;;17.20;99.90;;;;;;5032485;28;20043;-73
2023/07/08 05:37:23;;;;;;;6.45;2.20;;;17.30;99.90;;;;;;5049903;28;20048;-74
2023/07/08 05:39:49;;;;;;;;;;;17.40;99.90;;;;;;5033431;28;20044;-74
2023/07/08 05:42:15;;;;;;;3.58;1.40;;;17.50;99.90;;;;;;5050422;28;19916;-73
2023/07/08 05:44:41;;;;;;;3.05;1.70;;;17.60;99.90;;;;;;5050805;28;20094;-74
2023/07/08 05:47:07;;;;;;;9.02;2.92;;;17.70;99.90;;;;;;5049410;28;20067;-73
2023/07/08 05:49:33;;;;;;;6.93;2.30;;;17.80;99.90;;;;;;5061646;28;20044;-72
2023/07/08 05:51:59;;;;;;;2.88;2.03;;;17.90;99.90;;;;;;5069531;28;20052;-71
2023/07/08 05:54:24;;;;;;;3.00;1.92;;;18.00;99.90;;;;;;5070478;28;20032;-72
2023/07/08 05:56:50;;;;;;;2.83;1.48;;;18.10;99.90;;;;;;5070108;28;20389;-73
2023/07/08 05:59:16;;;;;;;3.67;2.20;;;18.20;99.90;;;;;;5069329;28;20095;-69
2023/07/08 06:01:42;;;;;;;4.28;2.10;;;18.40;99.90;;;;;;5052227;28;20044;-73
2023/07/08 06:04:08;;;;;;;2.95;1.65;;;18.40;99.90;;;;;;5070401;28;20479;-72
2023/07/08 06:06:34;;;;;;;2.38;1.58;;;18.60;99.90;;;;;;5052328;28;20044;-67
2023/07/08 06:09:00;;;;;;;3.83;1.67;;;18.70;99.90;;;;;;5068559;28;20053;-71
2023/07/08 06:11:26;;;;;;;2.70;1.45;;;18.80;99.90;;;;;;5069160;28;20124;-73
2023/07/08 06:13:52;;;;;;;4.15;1.80;;;18.90;99.90;;;;;;5052435;28;20131;-73
2023/07/08 06:16:18;;;;;;;2.88;1.42;;;19.00;99.90;;;;;;5051921;28;20500;-73
2023/07/08 06:18:43;;;;;;;3.58;1.67;;;19.20;99.90;;;;;;5069026;28;20040;-71
2023/07/08 06:21:09;;;;;;;2.85;1.73;;;19.30;99.90;;;;;;5043577;28;20103;-75
2023/07/08 06:23:35;;;;;;;3.30;1.48;;;19.40;99.90;;;;;;5048590;28;20040;-72
2023/07/08 06:26:01;;;;;;;2.90;1.10;;;19.60;99.90;;;;;;5032583;28;20084;-72
2023/07/08 06:28:27;;;;;;;6.22;1.85;;;19.70;99.90;;;;;;5050480;28;20401;-73
2023/07/08 06:30:52;;;;;;;1.35;1.08;;;19.80;99.90;;;;;;5049615;28;20447;-69
2023/07/08 06:33:18;;;;;;;3.85;1.42;;;20.00;99.90;;;;;;5049964;28;20225;-74
2023/07/08 06:35:44;;;;;;;2.13;1.48;;;20.20;99.90;;;;;;5052983;28;20047;-73
2023/07/08 06:38:11;;;;;;;3.72;1.58;;;20.40;99.90;;;;;;5052397;28;20075;-73
2023/07/08 06:40:37;;;;;;;2.50;1.77;;;20.60;99.90;;;;;;5036410;28;20552;-75
2023/07/08 06:43:03;;;;;;;2.30;1.13;;;20.80;99.90;;;;;;5053057;28;20073;-74
2023/07/08 06:45:29;;;;;;;2.20;1.63;;;21.00;99.90;;;;;;5052845;28;20075;-74
2023/07/08 06:47:56;;;;;;;2.65;1.13;;;21.30;99.90;;;;;;5054356;28;20033;-72
2023/07/08 06:50:22;;;;;;;2.83;1.05;;;21.50;99.90;;;;;;5036047;28;20129;-73
2023/07/08 06:52:48;;;;;;;6.45;1.55;;;21.80;99.90;;;;;;5051960;28;20095;-74
2023/07/08 06:55:14;;;;;;;2.80;1.27;;;22.00;99.90;;;;;;5052006;28;20056;-75
2023/07/08 06:57:40;;;;;;;2.50;1.15;;;22.20;99.90;;;;;;5052713;28;20409;-75
2023/07/08 07:00:09;;;;;;;2.67;1.00;;;22.40;99.90;;;;;;5056382;28;20071;-76
2023/07/08 07:02:34;;;;;;;0.88;0.65;;;22.60;99.90;;;;;;5052022;28;20398;-76
2023/07/08 07:05:01;;;;;;;2.25;1.05;;;22.80;99.90;;;;;;5070369;28;20044;-76
2023/07/08 07:07:27;;;;;;;3.13;1.35;;;22.90;99.90;;;;;;5073046;28;20562;-73
2023/07/08 07:09:54;;;;;;;1.83;1.10;;;23.10;99.90;;;;;;5055795;28;20040;-74
2023/07/08 07:12:20;;;;;;;2.17;1.00;;;23.20;99.90;;;;;;5072917;28;20102;-71
2023/07/08 07:14:46;;;;;;;2.53;1.58;;;23.40;99.90;;;;;;5072007;28;20510;-73
2023/07/08 07:17:12;;;;;;;1.77;0.90;;;23.50;99.90;;;;;;5073500;28;20078;-72
2023/07/08 07:19:38;;;;;;;2.72;1.20;;;23.70;99.90;;;;;;5071457;28;20098;-71
2023/07/08 07:22:04;;;;;;;1.85;1.05;;;23.80;99.70;;;;;;5072769;28;20033;-73
2023/07/08 07:24:30;;;;;;;2.90;1.00;;;24.00;99.90;;;;;;5071513;28;20113;-75
2023/07/08 07:26:56;;;;;;;2.28;0.93;;;24.10;99.90;;;;;;5072426;28;20048;-75
2023/07/08 07:29:23;;;;;;;2.78;1.45;;;24.30;99.90;;;;;;5071804;28;20576;-74
2023/07/08 07:31:51;;;;;;;2.47;1.00;;;24.60;99.90;;;;;;5073308;28;20041;-75
2023/07/08 07:34:17;;;;;;;1.38;0.80;;;24.80;99.90;;;;;;5071107;28;20044;-74
2023/07/08 07:36:43;;;;;;;1.63;1.00;;;25.00;99.90;;;;;;5071692;28;20473;-75
2023/07/08 07:39:09;;;;;;;3.08;1.00;;;25.20;99.90;;;;;;5073129;28;20040;-75
2023/07/08 07:41:34;;;;;;;1.63;0.88;;;25.50;99.90;;;;;;5054851;28;20524;-75
2023/07/08 07:44:00;;;;;;;2.80;1.20;;;25.60;99.10;;;;;;5073129;28;20033;-75
2023/07/08 07:46:26;;;;;;;2.15;1.00;;;25.60;98.80;;;;;;5071624;28;20503;-77
2023/07/08 07:48:52;;;;;;;2.42;1.30;;;25.90;98.50;;;;;;5071747;28;20044;-76
2023/07/08 07:51:18;;;;;;;1.65;1.02;;;26.10;97.70;;;;;;5071470;28;20044;-76
2023/07/08 07:53:44;;;;;;;1.33;0.85;;;26.20;97.60;;;;;;5072071;28;20048;-75
2023/07/08 07:56:09;;;;;;;5.95;0.95;;;26.20;96.60;;;;;;5071534;28;20116;-74
2023/07/08 07:58:35;;;;;;;2.42;0.85;;;26.30;96.40;;;;;;5071432;28;20497;-75
2023/07/08 08:01:01;;;;;;;2.35;1.13;;;26.40;95.60;;;;;;5055420;28;20041;-73
2023/07/08 08:03:27;;;;;;;2.03;1.10;;;26.40;95.10;;;;;;5052648;28;20148;-72
2023/07/08 08:05:53;;;;;;;4.28;0.93;;;26.50;94.40;;;;;;5070704;28;20036;-72
2023/07/08 08:08:20;;;;;;;2.33;0.90;;;26.50;94.00;;;;;;5070475;28;20042;-74
2023/07/08 08:10:45;;;;;;;1.27;0.70;;;26.60;94.00;;;;;;5054544;28;20047;-75
2023/07/08 08:13:11;;;;;;;1.52;0.88;;;26.80;94.30;;;;;;5071133;28;20036;-75
2023/07/08 08:15:38;;;;;;;1.33;0.75;;;27.00;93.70;;;;;;5053629;28;20420;-75
2023/07/08 08:18:04;;;;;;;1.90;0.98;;;27.10;92.80;;;;;;5072343;28;20040;-74
2023/07/08 08:20:30;;;;;;;1.70;1.05;;;27.20;92.70;;;;;;5071257;28;20397;-73
2023/07/08 08:22:56;;;;;;;2.67;1.00;;;27.40;93.00;;;;;;5067183;28;20047;-76
2023/07/08 08:25:24;;;;;;;1.95;1.10;;;27.50;92.60;;;;;;5072012;28;20040;-75
2023/07/08 08:27:51;;;;;;;2.15;1.08;;;27.70;91.60;;;;;;5070709;28;20120;-75
2023/07/08 08:30:17;;;;;;;1.73;0.80;;;27.90;91.60;;;;;;5070144;28;20052;-74
2023/07/08 08:32:43;;;;;;;1.23;0.60;;;28.00;91.20;;;;;;5072222;28;20041;-75
2023/07/08 08:35:09;;;;;;;2.72;1.00;;;27.90;90.90;;;;;;5070598;28;20117;-75
2023/07/08 08:37:35;;;;;;;1.77;0.88;;;27.90;90.40;;;;;;5069935;28;20098;-72
2023/07/08 08:40:01;;;;;;;4.60;1.15;;;27.90;90.40;;;;;;5070860;28;20043;-71
2023/07/08 08:42:43;;;;;;;2.72;1.13;;;28.00;90.20;;;;;;5069892;28;20393;-73
2023/07/08 08:45:17;;;;;;;3.38;1.30;;;28.20;87.70;;;;;;5053706;28;20049;-75
2023/07/08 08:47:47;;;;;;;2.00;1.38;;;28.40;86.70;;;;;;5070161;28;20045;-75
2023/07/08 08:50:43;;;;;;;1.73;0.93;;;28.40;87.20;;;;;;5069962;28;20045;-76
2023/07/08 08:53:12;;;;;;;2.20;0.90;;;28.50;78.40;;;;;;5039255;28;20064;-74
2023/07/08 08:55:39;;;;;;;1.70;1.13;;;28.50;86.10;;;;;;5034983;28;20041;-75
2023/07/08 08:58:30;;;;;;;2.00;1.10;;;28.60;86.50;;;;;;5052869;28;20123;-72
2023/07/08 09:01:02;;;;;;;2.45;1.33;;;28.80;83.60;;;;;;5055566;28;20033;-75
2023/07/08 09:03:50;;;;;;;2.53;1.30;;;28.80;85.50;;;;;;5049837;28;20144;-70
2023/07/08 09:06:32;;;;;;;3.15;1.10;;;29.00;86.00;;;;;;5033692;28;20469;-72
2023/07/08 09:09:03;;;;;;;1.83;0.80;;;29.40;84.60;;;;;;5033607;28;20418;-72
2023/07/08 09:11:58;;;;;;;2.45;1.20;;;29.40;82.80;;;;;;5049446;28;20072;-70
2023/07/08 09:14:28;;;;;;;2.70;1.10;;;29.40;80.90;;;;;;5049888;28;20053;-73
2023/07/08 09:17:11;;;;;;;1.25;0.77;;;29.30;82.50;;;;;;5049996;28;20037;-70
2023/07/08 09:19:59;;;;;;;4.88;1.30;;;29.30;80.50;;;;;;5049489;28;20044;-75
2023/07/08 09:22:34;;;;;;;2.00;1.17;;;29.20;81.00;;;;;;5051036;28;20501;-72
2023/07/08 09:25:38;;;;;;;5.15;1.35;;;29.30;79.70;;;;;;5059826;28;20085;-73
2023/07/08 09:28:04;;;;;;;1.83;1.00;;;29.30;79.70;;;;;;5053850;28;20057;-75
2023/07/08 09:30:30;;;;;;;1.85;1.13;;;29.40;81.30;;;;;;5069604;28;20089;-75
2023/07/08 09:32:57;;;;;;;2.08;0.98;;;29.60;80.90;;;;;;5068992;28;20051;-74
2023/07/08 09:35:29;;;;;;;3.13;1.10;;;29.90;81.30;;;;;;5069488;28;20385;-73
2023/07/08 09:37:55;;;;;;;2.03;1.05;;;30.00;80.90;;;;;;5070715;28;20044;-72
2023/07/08 09:40:28;;;;;;;2.17;1.08;;;30.20;80.10;;;;;;5069790;28;20123;-73
2023/07/08 09:43:01;;;;;;;3.60;0.88;;;30.40;79.70;;;;;;5069287;28;20036;-71
2023/07/08 09:45:28;;;;;;;3.28;1.25;;;30.50;73.20;;;;;;5068961;28;20123;-71
2023/07/08 09:48:01;;;;;;;2.60;1.35;;;30.60;78.80;;;;;;5069559;28;20382;-73
2023/07/08 09:50:31;;;;;;;2.55;1.00;;;30.70;78.70;;;;;;5052746;28;20508;-70
2023/07/08 09:53:01;;;;;;;2.78;1.17;;;30.70;78.50;;;;;;5068483;28;20420;-73
2023/07/08 09:55:28;;;;;;;1.60;0.88;;;30.80;78.50;;;;;;5070220;28;20476;-73
2023/07/08 09:57:58;;;;;;;1.95;0.95;;;30.80;77.40;;;;;;5070352;28;20501;-69
2023/07/08 10:00:34;;;;;;;4.07;1.20;;;30.90;77.90;;;;;;5069641;28;20041;-72
2023/07/08 10:03:05;;;;;;;1.77;0.88;;;31.20;76.20;;;;;;5069294;28;20667;-74
2023/07/08 10:05:39;;;;;;;1.25;0.93;;;31.20;76.40;;;;;;5069233;28;20040;-71
2023/07/08 10:08:20;;;;;;;2.60;1.27;;;31.40;76.80;;;;;;5063266;28;20147;-71
2023/07/08 10:10:50;;;;;;;3.20;1.10;;;31.50;74.40;;;;;;5048260;28;20045;-72
2023/07/08 10:13:22;;;;;;;1.55;1.02;;;31.60;75.20;;;;;;5032257;28;20102;-74
2023/07/08 10:16:00;;;;;;;1.88;1.08;;;31.50;73.00;;;;;;5048515;28;20367;-73
2023/07/08 10:18:29;;;;;;;1.85;1.08;;;31.50;74.50;;;;;;5048044;28;20051;-73
2023/07/08 10:21:13;;;;;;;;;;;31.60;74.60;;;;;;5049776;28;20037;-73
2023/07/08 10:23:51;;;;;;;1.70;1.02;;;31.50;70.10;;;;;;5048935;28;19923;-73
2023/07/08 10:26:29;;;;;;;2.50;1.10;;;31.80;73.50;;;;;;5049021;28;20037;-73
2023/07/08 10:29:25;;;;;;;2.13;1.40;;;32.10;72.20;;;;;;5048561;28;20362;-73
2023/07/08 10:32:02;;;;;;;2.65;1.20;;;32.20;72.10;;;;;;5032491;28;20053;-70
2023/07/08 10:34:41;;;;;;;2.38;1.15;;;32.10;72.30;;;;;;5048672;28;20401;-71
2023/07/08 10:37:22;;;;;;;2.08;1.00;;;32.10;70.90;;;;;;5048796;28;20049;-72
2023/07/08 10:40:08;;;;;;;4.72;1.40;;;32.20;71.50;;;;;;5049927;28;20509;-67
2023/07/08 10:42:50;;;;;;;2.33;1.27;;;32.10;69.50;;;;;;5048183;28;20044;-74
2023/07/08 10:45:38;;;;;;;3.42;1.38;;;32.20;71.50;;;;;;5059170;28;20063;-72
2023/07/08 10:48:06;;;;;;;1.90;1.20;;;32.30;71.10;;;;;;5070016;28;20040;-72
2023/07/08 10:50:50;;;;;;;2.10;1.30;;;32.40;71.50;;;;;;5068329;28;20094;-73
2023/07/08 10:53:33;;;;;;;1.75;0.90;;;32.50;70.80;;;;;;5056018;28;20210;-72
2023/07/08 10:56:41;;;;;;;3.85;1.08;;;32.50;70.60;;;;;;5064188;28;20083;-74
2023/07/08 10:59:07;;;;;;;;;;;32.60;70.10;;;;;;5043992;28;20106;-71
2023/07/08 11:02:00;;;;;;;2.42;1.20;;;32.80;71.70;;;;;;5064527;28;20332;-68
2023/07/08 11:04:44;;;;;;;2.08;0.98;;;32.90;66.00;;;;;;5062228;28;20041;-72
2023/07/08 11:07:10;;;;;;;1.90;1.13;;;32.80;68.00;;;;;;5069700;28;20045;-73
2023/07/08 11:09:48;;;;;;;2.08;1.27;;;32.80;68.10;;;;;;5069252;28;20044;-74
2023/07/08 11:12:40;;;;;;;2.38;1.10;;;32.90;67.70;;;;;;5068530;28;20044;-75
2023/07/08 11:15:18;;;;;;;1.85;1.17;;;33.00;65.90;;;;;;5058367;28;20041;-68
2023/07/08 11:17:58;;;;;;;2.55;1.38;;;32.80;64.80;;;;;;5066158;28;20045;-73
2023/07/08 11:20:34;;;;;;;1.58;1.00;;;32.60;64.20;;;;;;5057199;28;20040;-74
2023/07/08 11:23:47;;;;;;;1.75;0.73;;;32.50;66.20;;;;;;5072443;28;20077;-75
2023/07/08 11:26:19;;;;;;;2.65;1.00;;;32.60;63.90;;;;;;5069034;28;20101;-69
2023/07/08 11:28:46;;;;;;;1.30;0.88;;;32.60;63.40;;;;;;5069520;28;20056;-73
2023/07/08 11:31:14;;;;;;;3.50;1.60;;;32.60;64.20;;;;;;5071683;28;20385;-73
2023/07/08 11:33:41;;;;;;;6.57;1.67;;;32.60;64.20;;;;;;5071342;28;20105;-75
2023/07/08 11:36:09;;;;;;;2.00;0.98;;;32.40;62.90;;;;;;5072387;28;20064;-73
2023/07/08 11:38:35;;;;;;;2.00;1.00;;;32.30;63.60;;;;;;5070986;28;20389;-74
2023/07/08 11:41:14;;;;;;;1.83;0.95;;;32.40;64.30;;;;;;5071709;28;20109;-74
2023/07/08 11:43:52;;;;;;;1.65;0.82;;;32.40;63.00;;;;;;5054949;28;20668;-75
2023/07/08 11:46:28;;;;;;;4.03;1.38;;;32.40;63.30;;;;;;5070829;28;20036;-73
2023/07/08 11:49:00;;;;;;;1.83;1.05;;;32.50;62.70;;;;;;5072775;28;20032;-73
2023/07/08 11:51:38;;;;;;;2.33;1.08;;;32.60;63.50;;;;;;5071266;28;20033;-73
2023/07/08 11:54:04;;;;;;;3.00;1.20;;;32.70;62.80;;;;;;5071297;28;20102;-69
2023/07/08 11:56:57;;;;;;;3.42;1.65;;;32.70;59.80;;;;;;5071264;28;20044;-74
2023/07/08 11:59:30;;;;;;;3.47;1.15;;;32.70;61.00;;;;;;5070518;28;20090;-74
2023/07/08 12:02:17;;;;;;;3.38;0.88;;;32.70;63.50;;;;;;5071346;28;20107;-70
2023/07/08 12:05:02;;;;;;;1.88;1.27;;;32.90;63.10;;;;;;5072450;28;20098;-75
2023/07/08 12:07:37;;;;;;;2.30;1.23;;;33.10;64.00;;;;;;5054101;28;20072;-74
2023/07/08 12:10:17;;;;;;;1.83;0.98;;;33.10;63.40;;;;;;5070638;28;20043;-74
2023/07/08 12:12:45;;;;;;;1.85;1.20;;;33.00;62.90;;;;;;5053875;28;20040;-72
2023/07/08 12:15:32;;;;;;;2.05;1.10;;;32.90;61.80;;;;;;5072000;28;20045;-74
2023/07/08 12:18:06;;;;;;;3.65;1.30;;;32.70;62.30;;;;;;5071129;28;20037;-72
2023/07/08 12:20:39;;;;;;;5.07;1.35;;;32.70;62.20;;;;;;5070688;28;20041;-71
2023/07/08 12:23:20;;;;;;;2.88;1.48;;;32.60;62.40;;;;;;5072165;28;20433;-71
2023/07/08 12:25:46;;;;;;;4.10;1.48;;;32.60;61.60;;;;;;5070957;28;20106;-73
2023/07/08 12:28:14;;;;;;;2.33;1.02;;;32.60;62.10;;;;;;5070218;28;20052;-73
2023/07/08 12:30:41;;;;;;;2.72;1.25;;;32.60;62.50;;;;;;5069981;28;20727;-70
2023/07/08 12:33:16;;;;;;;2.15;1.17;;;32.60;62.90;;;;;;5071784;28;20051;-71
2023/07/08 12:35:43;;;;;;;2.97;1.38;;;32.60;60.20;;;;;;5053499;28;20079;-70
2023/07/08 12:38:21;;;;;;;2.42;1.38;;;32.50;60.80;;;;;;5070540;28;20400;-72
2023/07/08 12:40:47;;;;;;;6.50;1.58;;;32.40;61.20;;;;;;5053471;28;20761;-72
2023/07/08 12:43:14;;;;;;;2.95;1.50;;;32.30;61.30;;;;;;5053942;28;20037;-73
2023/07/08 12:45:40;;;;;;;2.38;1.38;;;32.40;61.40;;;;;;5058331;28;20048;-73
2023/07/08 12:48:06;;;;;;;3.78;1.63;;;32.50;61.50;;;;;;5049919;28;20040;-73
2023/07/08 12:50:31;;;;;;;3.38;1.80;;;32.60;61.40;;;;;;5050454;28;20045;-72
2023/07/08 12:52:57;;;;;;;4.72;1.83;;;32.60;61.00;;;;;;5050318;28;20060;-71
2023/07/08 12:55:24;;;;;;;2.83;1.55;;;32.60;61.50;;;;;;5050055;28;20045;-74
2023/07/08 12:57:52;;;;;;;4.45;1.40;;;32.60;61.00;;;;;;5050721;28;20037;-74
2023/07/08 13:00:27;;;;;;;2.70;1.10;;;32.50;60.40;;;;;;5064865;28;20044;-73
2023/07/08 13:03:05;;;;;;;3.17;1.70;;;32.40;60.60;;;;;;5053049;28;20082;-71